AirNav   Pilot Hours Calculator
 
 1147 users online  

50FA Lehigh Acres Regional Medical Center Heliport
Lehigh Acres, Florida, USA

GOING TO LEHIGH ACRES?


FAA INFORMATION EFFECTIVE 02 JANUARY 2020

Location

FAA Identifier: 50FA
Lat/Long: 26-36-59.7860N 081-39-32.9260W
26-36.996433N 081-39.548767W
26.6166072,-81.6591461
(estimated)
Elevation: 23.2 ft. / 7 m (estimated)
From city: 7 miles ENE of LEHIGH ACRES, FL
Time zone: UTC -5 (UTC -4 during Daylight Saving Time)
Zip code: 33976

Heliport Operations

Heliport use: Private use. Permission required prior to landing
Activation date: 07/2012
Control tower: no
ARTCC: MIAMI CENTER
FSS: MIAMI FLIGHT SERVICE STATION
Attendance: UNATNDD
Wind indicator: lighted
Segmented circle: no
Lights: SS-SR
Beacon: white-green-yellow (heliport)

Heliport Communications

WX ASOS at RSW (7 nm SW): PHONE 239-561-0966
WX ASOS at FMY (11 nm W): 123.725 (239-936-2318)
WX AWOS-3 at IMM (18 nm SE): 118.525 (239-657-2038)

Nearby radio navigation aids

VOR radial/distance  VOR name  Freq  Var
RSWr052/8.1LEE COUNTY VORTAC111.8002W
LBVr227/19.2LA BELLE VORTAC110.4001E
PGDr141/(25.3)PUNTA GORDA VOR110.2006W
CYYr016/28.5CYPRESS VOR/DME108.6003W

Heliport Services

Runway Information

Helipad H1

Dimensions: 20 x 20 ft. / 6 x 6 m
Surface: concrete
Runway edge lights: PERI
Latitude: 26-36.996433N
Longitude: 081-39.548767W
Elevation: 23.0 ft.
Traffic pattern: leftleft

Heliport Ownership and Management from official FAA records

Ownership: Privately-owned
Owner: PRIME HEALTHCARE SERVICES
1500 LEE BLVD
LEHIGH ACRES, FL 33936
Phone 239-369-2101
Manager: JAMES E. ALLARD
1500 LEE BLVD
LEHIGH ACRES, FL 33936
Phone 239-369-2101
DIRECTOR OF PLANT OPERATIONS

Additional Remarks

FOR CD CTC FORT MYERS APCH AT 239-768-1377, WHEN APCH CLSD CTC MIAMI ARTCC AT 305-716-1731.

Instrument Procedures

There are no published instrument procedures at 50FA.

Some nearby airports with instrument procedures:

KRSW - Southwest Florida International Airport (7 nm SW)
KFMY - Page Field Airport (11 nm W)
X14 - La Belle Municipal Airport (14 nm NE)
KIMM - Immokalee Regional Airport (18 nm SE)
KPGD - Punta Gorda Airport (25 nm NW)
 
Loc | Ops | Rwys | IFR | FBO | Links
Com | Nav | Svcs | Stats | Notes


 
Aerial photo
No photo
 
Airport distance calculator
Flying to Lehigh Acres Regional Medical Center Heliport? Find the distance to fly.

From to 50FA

Sunrise and sunset
Times for 21-Jan-2020
 Local
(UTC-5)
 Zulu
(UTC)
Morning civil twilight06:5211:52
Sunrise07:1712:17
Sunset17:5922:59
Evening civil twilight18:2423:24

Current date and time
Zulu (UTC)  22-Jan-2020 02:45:04
Local (UTC-5)  21-Jan-2020 21:45:04
 
METAR
KRSW 
8nm SW 
220153Z 35007KT 10SM CLR 08/00 A3019 RMK AO2 SLP221 T00830000
KFMY 
11nm W 
220153Z 34010KT 10SM CLR 09/00 A3019 RMK AO2 SLP226 T00940000
KIMM 
18nm SE 
220235Z AUTO VRB04KT 10SM OVC044 05/M01 A3019 RMK AO2
TAF
KRSW 
8nm SW 
211728Z 2118/2218 36015G20KT P6SM FEW030 FM220900 01013KT P6SM SKC
KFMY 
11nm W 
211728Z 2118/2218 35015G20KT P6SM FEW030 FM220900 01013KT P6SM SKC
NOTAMs
Click for the latest NOTAMs
NOTAMs are issued by the DoD/FAA and will open in a separate window not controlled by AirNav.

 

 
 

Would you like to see your business listed on this page?

 If your business provides an interesting product or service to pilots, flight crews, aircraft, or users of the Lehigh Acres Regional Medical Center Heliport, you should consider listing it here.  To start the listing process, click on the button below
 
Add a business
 

Other Pages about Lehigh Acres Regional Medical Center Heliport

Update a link
 
Copyright © AirNav, LLC. All rights reserved. Privacy Policy  Contact